sensor_id;sensor_type;location;lat;lon;timestamp;temperature;humidity
69589;SHT31;56792;50.644;17.984;2024-03-08T00:01:46;0.77;77.86
69589;SHT31;56792;50.644;17.984;2024-03-08T00:04:17;0.75;77.96
69589;SHT31;56792;50.644;17.984;2024-03-08T00:06:48;0.72;78.02
69589;SHT31;56792;50.644;17.984;2024-03-08T00:09:18;0.72;78.00
69589;SHT31;56792;50.644;17.984;2024-03-08T00:11:49;0.68;77.97
69589;SHT31;56792;50.644;17.984;2024-03-08T00:14:20;0.58;78.24
69589;SHT31;56792;50.644;17.984;2024-03-08T00:16:51;0.53;78.44
69589;SHT31;56792;50.644;17.984;2024-03-08T00:19:22;0.46;78.56
69589;SHT31;56792;50.644;17.984;2024-03-08T00:21:52;0.36;78.69
69589;SHT31;56792;50.644;17.984;2024-03-08T00:24:23;0.35;78.84
69589;SHT31;56792;50.644;17.984;2024-03-08T00:26:55;0.35;78.84
69589;SHT31;56792;50.644;17.984;2024-03-08T00:29:26;0.39;78.80
69589;SHT31;56792;50.644;17.984;2024-03-08T00:31:57;0.39;78.74
69589;SHT31;56792;50.644;17.984;2024-03-08T00:34:27;0.39;78.68
69589;SHT31;56792;50.644;17.984;2024-03-08T00:36:59;0.30;78.76
69589;SHT31;56792;50.644;17.984;2024-03-08T00:39:29;0.22;79.10
69589;SHT31;56792;50.644;17.984;2024-03-08T00:42:00;0.21;79.28
69589;SHT31;56792;50.644;17.984;2024-03-08T00:44:31;0.23;79.39
69589;SHT31;56792;50.644;17.984;2024-03-08T00:47:02;0.21;79.50
69589;SHT31;56792;50.644;17.984;2024-03-08T00:49:33;0.20;79.46
69589;SHT31;56792;50.644;17.984;2024-03-08T00:52:04;0.15;79.48
69589;SHT31;56792;50.644;17.984;2024-03-08T00:54:36;0.16;79.51
69589;SHT31;56792;50.644;17.984;2024-03-08T00:57:06;0.16;79.40
69589;SHT31;56792;50.644;17.984;2024-03-08T00:59:38;0.12;79.31
69589;SHT31;56792;50.644;17.984;2024-03-08T01:02:09;0.07;79.30
69589;SHT31;56792;50.644;17.984;2024-03-08T01:04:40;0.03;79.50
69589;SHT31;56792;50.644;17.984;2024-03-08T01:07:11;0.03;79.58
69589;SHT31;56792;50.644;17.984;2024-03-08T01:09:42;0.05;79.72
69589;SHT31;56792;50.644;17.984;2024-03-08T01:12:13;0.06;79.67
69589;SHT31;56792;50.644;17.984;2024-03-08T01:14:43;0.03;79.61
69589;SHT31;56792;50.644;17.984;2024-03-08T01:17:14;-0.01;79.76
69589;SHT31;56792;50.644;17.984;2024-03-08T01:19:45;0.00;79.85
69589;SHT31;56792;50.644;17.984;2024-03-08T01:22:16;0.01;79.93
69589;SHT31;56792;50.644;17.984;2024-03-08T01:24:47;0.01;80.02
69589;SHT31;56792;50.644;17.984;2024-03-08T01:27:18;0.01;80.12
69589;SHT31;56792;50.644;17.984;2024-03-08T01:29:48;-0.01;80.14
69589;SHT31;56792;50.644;17.984;2024-03-08T01:32:19;-0.05;80.25
69589;SHT31;56792;50.644;17.984;2024-03-08T01:34:50;-0.08;80.31
69589;SHT31;56792;50.644;17.984;2024-03-08T01:37:21;-0.11;80.21
69589;SHT31;56792;50.644;17.984;2024-03-08T01:39:52;-0.13;80.27
69589;SHT31;56792;50.644;17.984;2024-03-08T01:42:23;-0.17;80.25
69589;SHT31;56792;50.644;17.984;2024-03-08T01:44:53;-0.18;80.38
69589;SHT31;56792;50.644;17.984;2024-03-08T01:47:24;-0.21;80.40
69589;SHT31;56792;50.644;17.984;2024-03-08T01:49:57;-0.21;80.44
69589;SHT31;56792;50.644;17.984;2024-03-08T01:52:29;-0.21;80.42
69589;SHT31;56792;50.644;17.984;2024-03-08T01:55:01;-0.22;80.47
69589;SHT31;56792;50.644;17.984;2024-03-08T01:57:34;-0.25;80.59
69589;SHT31;56792;50.644;17.984;2024-03-08T02:00:06;-0.27;80.70
69589;SHT31;56792;50.644;17.984;2024-03-08T02:02:38;-0.27;80.70
69589;SHT31;56792;50.644;17.984;2024-03-08T02:05:11;-0.29;80.66
69589;SHT31;56792;50.644;17.984;2024-03-08T02:07:44;-0.30;80.60
69589;SHT31;56792;50.644;17.984;2024-03-08T02:10:15;-0.34;80.76
69589;SHT31;56792;50.644;17.984;2024-03-08T02:12:47;-0.37;80.81
69589;SHT31;56792;50.644;17.984;2024-03-08T02:15:18;-0.38;80.85
69589;SHT31;56792;50.644;17.984;2024-03-08T02:17:49;-0.39;80.93
69589;SHT31;56792;50.644;17.984;2024-03-08T02:20:20;-0.41;80.97
69589;SHT31;56792;50.644;17.984;2024-03-08T02:22:51;-0.43;80.89
69589;SHT31;56792;50.644;17.984;2024-03-08T02:25:22;-0.44;80.89
69589;SHT31;56792;50.644;17.984;2024-03-08T02:27:53;-0.43;80.99
69589;SHT31;56792;50.644;17.984;2024-03-08T02:30:23;-0.46;81.15
69589;SHT31;56792;50.644;17.984;2024-03-08T02:32:56;-0.49;81.23
69589;SHT31;56792;50.644;17.984;2024-03-08T02:35:27;-0.53;81.18
69589;SHT31;56792;50.644;17.984;2024-03-08T02:37:57;-0.61;80.99
69589;SHT31;56792;50.644;17.984;2024-03-08T02:40:30;-0.64;80.99
69589;SHT31;56792;50.644;17.984;2024-03-08T02:43:00;-0.69;80.95
69589;SHT31;56792;50.644;17.984;2024-03-08T02:45:32;-0.72;81.03
69589;SHT31;56792;50.644;17.984;2024-03-08T02:48:03;-0.73;81.12
69589;SHT31;56792;50.644;17.984;2024-03-08T02:50:35;-0.72;81.22
69589;SHT31;56792;50.644;17.984;2024-03-08T02:53:08;-0.69;81.35
69589;SHT31;56792;50.644;17.984;2024-03-08T02:55:43;-0.67;81.41
69589;SHT31;56792;50.644;17.984;2024-03-08T02:58:14;-0.66;81.40
69589;SHT31;56792;50.644;17.984;2024-03-08T03:00:45;-0.67;81.40
69589;SHT31;56792;50.644;17.984;2024-03-08T03:03:16;-0.68;81.54
69589;SHT31;56792;50.644;17.984;2024-03-08T03:05:48;-0.66;81.64
69589;SHT31;56792;50.644;17.984;2024-03-08T03:08:22;-0.65;81.66
69589;SHT31;56792;50.644;17.984;2024-03-08T03:10:52;-0.66;81.76
69589;SHT31;56792;50.644;17.984;2024-03-08T03:13:24;-0.67;81.72
69589;SHT31;56792;50.644;17.984;2024-03-08T03:15:56;-0.71;81.72
69589;SHT31;56792;50.644;17.984;2024-03-08T03:18:26;-0.70;81.70
69589;SHT31;56792;50.644;17.984;2024-03-08T03:20:59;-0.73;81.53
69589;SHT31;56792;50.644;17.984;2024-03-08T03:23:34;-0.75;81.55
69589;SHT31;56792;50.644;17.984;2024-03-08T03:26:06;-0.75;81.68
69589;SHT31;56792;50.644;17.984;2024-03-08T03:28:38;-0.74;81.74
69589;SHT31;56792;50.644;17.984;2024-03-08T03:31:09;-0.74;81.71
69589;SHT31;56792;50.644;17.984;2024-03-08T03:33:41;-0.76;81.58
69589;SHT31;56792;50.644;17.984;2024-03-08T03:36:12;-0.78;81.67
69589;SHT31;56792;50.644;17.984;2024-03-08T03:38:42;-0.78;81.84
69589;SHT31;56792;50.644;17.984;2024-03-08T03:41:13;-0.79;81.98
69589;SHT31;56792;50.644;17.984;2024-03-08T03:43:44;-0.79;82.05
69589;SHT31;56792;50.644;17.984;2024-03-08T03:46:16;-0.80;82.08
69589;SHT31;56792;50.644;17.984;2024-03-08T03:48:47;-0.81;82.06
69589;SHT31;56792;50.644;17.984;2024-03-08T03:51:18;-0.81;81.96
69589;SHT31;56792;50.644;17.984;2024-03-08T03:53:48;-0.86;81.78
69589;SHT31;56792;50.644;17.984;2024-03-08T03:56:19;-0.92;81.63
69589;SHT31;56792;50.644;17.984;2024-03-08T03:58:55;-1.04;81.58
69589;SHT31;56792;50.644;17.984;2024-03-08T04:01:26;-1.07;81.75
69589;SHT31;56792;50.644;17.984;2024-03-08T04:03:57;-1.12;81.85
69589;SHT31;56792;50.644;17.984;2024-03-08T04:06:28;-1.14;82.00
69589;SHT31;56792;50.644;17.984;2024-03-08T04:08:59;-1.12;82.13
69589;SHT31;56792;50.644;17.984;2024-03-08T04:11:30;-1.16;82.02
69589;SHT31;56792;50.644;17.984;2024-03-08T04:14:01;-1.13;82.16
69589;SHT31;56792;50.644;17.984;2024-03-08T04:16:32;-1.10;82.19
69589;SHT31;56792;50.644;17.984;2024-03-08T04:19:03;-1.08;82.14
69589;SHT31;56792;50.644;17.984;2024-03-08T04:21:35;-1.11;82.06
69589;SHT31;56792;50.644;17.984;2024-03-08T04:24:06;-1.15;81.96
69589;SHT31;56792;50.644;17.984;2024-03-08T04:26:37;-1.19;82.16
69589;SHT31;56792;50.644;17.984;2024-03-08T04:29:07;-1.16;82.25
69589;SHT31;56792;50.644;17.984;2024-03-08T04:31:41;-1.14;82.21
69589;SHT31;56792;50.644;17.984;2024-03-08T04:34:12;-1.10;82.32
69589;SHT31;56792;50.644;17.984;2024-03-08T04:36:42;-1.07;82.35
69589;SHT31;56792;50.644;17.984;2024-03-08T04:39:13;-1.06;82.32
69589;SHT31;56792;50.644;17.984;2024-03-08T04:41:45;-1.08;82.27
69589;SHT31;56792;50.644;17.984;2024-03-08T04:44:17;-1.12;82.17
69589;SHT31;56792;50.644;17.984;2024-03-08T04:46:47;-1.13;82.21
69589;SHT31;56792;50.644;17.984;2024-03-08T04:49:18;-1.09;82.25
69589;SHT31;56792;50.644;17.984;2024-03-08T04:51:49;-1.09;82.11
69589;SHT31;56792;50.644;17.984;2024-03-08T04:54:20;-1.08;82.37
69589;SHT31;56792;50.644;17.984;2024-03-08T04:56:50;-1.08;82.43
69589;SHT31;56792;50.644;17.984;2024-03-08T04:59:22;-1.09;82.45
69589;SHT31;56792;50.644;17.984;2024-03-08T05:01:53;-1.11;82.23
69589;SHT31;56792;50.644;17.984;2024-03-08T05:04:23;-1.16;82.06
69589;SHT31;56792;50.644;17.984;2024-03-08T05:06:55;-1.23;82.18
69589;SHT31;56792;50.644;17.984;2024-03-08T05:09:27;-1.27;82.17
69589;SHT31;56792;50.644;17.984;2024-03-08T05:11:59;-1.31;82.33
69589;SHT31;56792;50.644;17.984;2024-03-08T05:14:29;-1.29;82.54
69589;SHT31;56792;50.644;17.984;2024-03-08T05:17:01;-1.26;82.68
69589;SHT31;56792;50.644;17.984;2024-03-08T05:19:33;-1.23;82.77
69589;SHT31;56792;50.644;17.984;2024-03-08T05:22:05;-1.20;82.79
69589;SHT31;56792;50.644;17.984;2024-03-08T05:24:36;-1.24;82.66
69589;SHT31;56792;50.644;17.984;2024-03-08T05:27:06;-1.27;82.71
69589;SHT31;56792;50.644;17.984;2024-03-08T05:29:37;-1.26;82.80
69589;SHT31;56792;50.644;17.984;2024-03-08T05:32:08;-1.25;82.79
69589;SHT31;56792;50.644;17.984;2024-03-08T05:34:39;-1.27;82.59
69589;SHT31;56792;50.644;17.984;2024-03-08T05:37:10;-1.30;82.60
69589;SHT31;56792;50.644;17.984;2024-03-08T05:39:41;-1.31;82.71
69589;SHT31;56792;50.644;17.984;2024-03-08T05:42:12;-1.31;82.76
69589;SHT31;56792;50.644;17.984;2024-03-08T05:44:43;-1.28;82.98
69589;SHT31;56792;50.644;17.984;2024-03-08T05:47:14;-1.23;83.05
69589;SHT31;56792;50.644;17.984;2024-03-08T05:49:45;-1.20;83.00
69589;SHT31;56792;50.644;17.984;2024-03-08T05:52:15;-1.17;82.93
69589;SHT31;56792;50.644;17.984;2024-03-08T05:54:46;-1.15;82.98
69589;SHT31;56792;50.644;17.984;2024-03-08T05:57:17;-1.12;82.88
69589;SHT31;56792;50.644;17.984;2024-03-08T05:59:49;-1.09;82.89
69589;SHT31;56792;50.644;17.984;2024-03-08T06:02:20;-1.05;82.78
69589;SHT31;56792;50.644;17.984;2024-03-08T06:04:51;-1.04;82.87
69589;SHT31;56792;50.644;17.984;2024-03-08T06:07:22;-1.00;82.84
69589;SHT31;56792;50.644;17.984;2024-03-08T06:09:52;-0.97;82.88
69589;SHT31;56792;50.644;17.984;2024-03-08T06:12:23;-0.92;82.87
69589;SHT31;56792;50.644;17.984;2024-03-08T06:14:58;-0.84;82.79
69589;SHT31;56792;50.644;17.984;2024-03-08T06:17:30;-0.80;82.55
69589;SHT31;56792;50.644;17.984;2024-03-08T06:20:01;-0.76;82.61
69589;SHT31;56792;50.644;17.984;2024-03-08T06:22:36;-0.72;82.61
69589;SHT31;56792;50.644;17.984;2024-03-08T06:25:08;-0.66;82.45
69589;SHT31;56792;50.644;17.984;2024-03-08T06:27:41;-0.63;82.44
69589;SHT31;56792;50.644;17.984;2024-03-08T06:30:13;-0.56;82.42
69589;SHT31;56792;50.644;17.984;2024-03-08T06:32:46;-0.54;82.17
69589;SHT31;56792;50.644;17.984;2024-03-08T06:35:18;-0.53;82.17
69589;SHT31;56792;50.644;17.984;2024-03-08T06:37:49;-0.44;82.18
69589;SHT31;56792;50.644;17.984;2024-03-08T06:40:19;-0.39;82.17
69589;SHT31;56792;50.644;17.984;2024-03-08T06:42:50;-0.34;82.11
69589;SHT31;56792;50.644;17.984;2024-03-08T06:45:21;-0.29;82.08
69589;SHT31;56792;50.644;17.984;2024-03-08T06:47:52;-0.25;82.00
69589;SHT31;56792;50.644;17.984;2024-03-08T06:50:23;-0.22;81.81
69589;SHT31;56792;50.644;17.984;2024-03-08T06:52:54;-0.21;81.68
69589;SHT31;56792;50.644;17.984;2024-03-08T06:55:25;-0.19;81.61
69589;SHT31;56792;50.644;17.984;2024-03-08T06:57:56;-0.18;81.60
69589;SHT31;56792;50.644;17.984;2024-03-08T07:00:27;-0.16;81.46
69589;SHT31;56792;50.644;17.984;2024-03-08T07:02:58;-0.14;81.49
69589;SHT31;56792;50.644;17.984;2024-03-08T07:05:29;-0.09;81.42
69589;SHT31;56792;50.644;17.984;2024-03-08T07:08:01;-0.03;81.38
69589;SHT31;56792;50.644;17.984;2024-03-08T07:10:33;0.02;81.32
69589;SHT31;56792;50.644;17.984;2024-03-08T07:13:08;0.09;81.22
69589;SHT31;56792;50.644;17.984;2024-03-08T07:15:39;0.16;81.15
69589;SHT31;56792;50.644;17.984;2024-03-08T07:18:09;0.23;81.20
69589;SHT31;56792;50.644;17.984;2024-03-08T07:20:41;0.31;80.96
69589;SHT31;56792;50.644;17.984;2024-03-08T07:23:12;0.40;80.80
69589;SHT31;56792;50.644;17.984;2024-03-08T07:26:04;0.50;80.84
69589;SHT31;56792;50.644;17.984;2024-03-08T07:28:35;0.59;80.61
69589;SHT31;56792;50.644;17.984;2024-03-08T07:31:05;0.66;80.34
69589;SHT31;56792;50.644;17.984;2024-03-08T07:33:47;0.76;80.23
69589;SHT31;56792;50.644;17.984;2024-03-08T07:36:19;0.88;80.17
69589;SHT31;56792;50.644;17.984;2024-03-08T07:38:50;0.97;79.92
69589;SHT31;56792;50.644;17.984;2024-03-08T07:41:21;1.07;79.96
69589;SHT31;56792;50.644;17.984;2024-03-08T07:43:52;1.17;79.96
69589;SHT31;56792;50.644;17.984;2024-03-08T07:46:23;1.29;79.67
69589;SHT31;56792;50.644;17.984;2024-03-08T07:48:55;1.37;79.29
69589;SHT31;56792;50.644;17.984;2024-03-08T07:51:26;1.42;78.45
69589;SHT31;56792;50.644;17.984;2024-03-08T07:53:57;1.51;78.59
69589;SHT31;56792;50.644;17.984;2024-03-08T07:56:30;1.59;78.59
69589;SHT31;56792;50.644;17.984;2024-03-08T07:59:02;1.68;78.34
69589;SHT31;56792;50.644;17.984;2024-03-08T08:01:34;1.77;78.08
69589;SHT31;56792;50.644;17.984;2024-03-08T08:04:05;1.84;77.83
69589;SHT31;56792;50.644;17.984;2024-03-08T08:06:38;1.96;77.86
69589;SHT31;56792;50.644;17.984;2024-03-08T08:09:09;2.03;77.87
69589;SHT31;56792;50.644;17.984;2024-03-08T08:11:41;2.08;77.52
69589;SHT31;56792;50.644;17.984;2024-03-08T08:14:13;2.16;77.04
69589;SHT31;56792;50.644;17.984;2024-03-08T08:16:44;2.25;76.95
69589;SHT31;56792;50.644;17.984;2024-03-08T08:19:17;2.34;76.75
69589;SHT31;56792;50.644;17.984;2024-03-08T08:21:47;2.42;76.51
69589;SHT31;56792;50.644;17.984;2024-03-08T08:24:18;2.48;76.22
69589;SHT31;56792;50.644;17.984;2024-03-08T08:26:49;2.58;76.31
69589;SHT31;56792;50.644;17.984;2024-03-08T08:29:20;2.66;75.88
69589;SHT31;56792;50.644;17.984;2024-03-08T08:31:51;2.76;75.57
69589;SHT31;56792;50.644;17.984;2024-03-08T08:34:22;2.82;75.22
69589;SHT31;56792;50.644;17.984;2024-03-08T08:36:52;2.82;75.22
69589;SHT31;56792;50.644;17.984;2024-03-08T08:39:23;2.88;75.07
69589;SHT31;56792;50.644;17.984;2024-03-08T08:41:54;2.92;74.53
69589;SHT31;56792;50.644;17.984;2024-03-08T08:44:25;3.02;74.49
69589;SHT31;56792;50.644;17.984;2024-03-08T08:46:57;3.03;74.42
69589;SHT31;56792;50.644;17.984;2024-03-08T08:49:30;3.10;74.51
69589;SHT31;56792;50.644;17.984;2024-03-08T08:52:01;3.18;74.48
69589;SHT31;56792;50.644;17.984;2024-03-08T08:54:33;3.29;74.32
69589;SHT31;56792;50.644;17.984;2024-03-08T08:57:04;3.37;74.09
69589;SHT31;56792;50.644;17.984;2024-03-08T08:59:36;3.45;73.78
69589;SHT31;56792;50.644;17.984;2024-03-08T09:02:07;3.55;72.46
69589;SHT31;56792;50.644;17.984;2024-03-08T09:04:37;3.67;72.83
69589;SHT31;56792;50.644;17.984;2024-03-08T09:07:08;3.81;72.06
69589;SHT31;56792;50.644;17.984;2024-03-08T09:09:40;3.95;71.72
69589;SHT31;56792;50.644;17.984;2024-03-08T09:12:12;4.13;71.32
69589;SHT31;56792;50.644;17.984;2024-03-08T09:14:44;4.28;71.24
69589;SHT31;56792;50.644;17.984;2024-03-08T09:17:15;4.40;70.94
69589;SHT31;56792;50.644;17.984;2024-03-08T09:19:47;4.53;70.24
69589;SHT31;56792;50.644;17.984;2024-03-08T09:22:18;4.64;69.87
69589;SHT31;56792;50.644;17.984;2024-03-08T09:24:48;4.78;69.77
69589;SHT31;56792;50.644;17.984;2024-03-08T09:27:19;4.82;68.07
69589;SHT31;56792;50.644;17.984;2024-03-08T09:29:50;4.74;67.74
69589;SHT31;56792;50.644;17.984;2024-03-08T09:32:21;4.92;67.91
69589;SHT31;56792;50.644;17.984;2024-03-08T09:34:53;4.92;67.09
69589;SHT31;56792;50.644;17.984;2024-03-08T09:37:23;4.75;67.08
69589;SHT31;56792;50.644;17.984;2024-03-08T09:39:54;4.72;67.58
69589;SHT31;56792;50.644;17.984;2024-03-08T09:42:25;4.68;67.66
69589;SHT31;56792;50.644;17.984;2024-03-08T09:44:58;4.64;67.62
69589;SHT31;56792;50.644;17.984;2024-03-08T09:47:30;4.64;67.92
69589;SHT31;56792;50.644;17.984;2024-03-08T09:50:06;4.61;67.95
69589;SHT31;56792;50.644;17.984;2024-03-08T09:52:39;4.73;67.94
69589;SHT31;56792;50.644;17.984;2024-03-08T09:55:14;4.94;67.65
69589;SHT31;56792;50.644;17.984;2024-03-08T09:57:48;5.17;67.02
69589;SHT31;56792;50.644;17.984;2024-03-08T10:00:37;5.26;65.87
69589;SHT31;56792;50.644;17.984;2024-03-08T10:03:08;5.22;65.82
69589;SHT31;56792;50.644;17.984;2024-03-08T10:05:41;5.18;65.82
69589;SHT31;56792;50.644;17.984;2024-03-08T10:08:12;5.19;65.41
69589;SHT31;56792;50.644;17.984;2024-03-08T10:10:42;5.47;65.83
69589;SHT31;56792;50.644;17.984;2024-03-08T10:13:13;5.68;65.20
69589;SHT31;56792;50.644;17.984;2024-03-08T10:15:46;5.76;65.05
69589;SHT31;56792;50.644;17.984;2024-03-08T10:18:17;5.59;64.74
69589;SHT31;56792;50.644;17.984;2024-03-08T10:20:55;5.41;64.63
69589;SHT31;56792;50.644;17.984;2024-03-08T10:23:34;5.38;64.85
69589;SHT31;56792;50.644;17.984;2024-03-08T10:26:11;5.30;65.21
69589;SHT31;56792;50.644;17.984;2024-03-08T10:28:45;5.39;65.60
69589;SHT31;56792;50.644;17.984;2024-03-08T10:31:17;5.41;65.14
69589;SHT31;56792;50.644;17.984;2024-03-08T10:33:48;5.35;64.94
69589;SHT31;56792;50.644;17.984;2024-03-08T10:36:19;5.41;65.19
69589;SHT31;56792;50.644;17.984;2024-03-08T10:38:51;5.64;65.23
69589;SHT31;56792;50.644;17.984;2024-03-08T10:41:24;5.80;64.42
69589;SHT31;56792;50.644;17.984;2024-03-08T10:44:07;5.79;64.02
69589;SHT31;56792;50.644;17.984;2024-03-08T10:46:55;5.69;63.74
69589;SHT31;56792;50.644;17.984;2024-03-08T10:49:37;5.85;64.18
69589;SHT31;56792;50.644;17.984;2024-03-08T10:52:17;6.19;64.01
69589;SHT31;56792;50.644;17.984;2024-03-08T10:54:49;6.41;63.31
69589;SHT31;56792;50.644;17.984;2024-03-08T10:57:23;6.60;62.91
69589;SHT31;56792;50.644;17.984;2024-03-08T10:59:55;6.56;61.01
69589;SHT31;56792;50.644;17.984;2024-03-08T11:02:26;6.50;61.80
69589;SHT31;56792;50.644;17.984;2024-03-08T11:04:59;6.65;61.52
69589;SHT31;56792;50.644;17.984;2024-03-08T11:07:41;6.77;61.32
69589;SHT31;56792;50.644;17.984;2024-03-08T11:10:19;6.85;60.86
69589;SHT31;56792;50.644;17.984;2024-03-08T11:12:50;6.87;61.04
69589;SHT31;56792;50.644;17.984;2024-03-08T11:15:21;6.98;61.02
69589;SHT31;56792;50.644;17.984;2024-03-08T11:17:58;7.05;60.51
69589;SHT31;56792;50.644;17.984;2024-03-08T11:20:29;6.96;60.22
69589;SHT31;56792;50.644;17.984;2024-03-08T11:23:03;7.11;60.35
69589;SHT31;56792;50.644;17.984;2024-03-08T11:25:36;7.25;60.14
69589;SHT31;56792;50.644;17.984;2024-03-08T11:28:14;7.45;60.09
69589;SHT31;56792;50.644;17.984;2024-03-08T11:33:55;7.84;58.77
69589;SHT31;56792;50.644;17.984;2024-03-08T11:36:26;7.91;58.67
69589;SHT31;56792;50.644;17.984;2024-03-08T11:39:02;7.98;58.48
69589;SHT31;56792;50.644;17.984;2024-03-08T11:41:41;8.08;58.30
69589;SHT31;56792;50.644;17.984;2024-03-08T11:44:13;8.02;58.21
69589;SHT31;56792;50.644;17.984;2024-03-08T11:46:44;8.02;58.37
69589;SHT31;56792;50.644;17.984;2024-03-08T11:49:15;7.96;58.45
69589;SHT31;56792;50.644;17.984;2024-03-08T11:51:45;8.00;59.38
69589;SHT31;56792;50.644;17.984;2024-03-08T11:54:20;8.09;58.39
69589;SHT31;56792;50.644;17.984;2024-03-08T11:56:52;8.04;58.40
69589;SHT31;56792;50.644;17.984;2024-03-08T11:59:27;8.04;59.03
69589;SHT31;56792;50.644;17.984;2024-03-08T12:02:00;8.07;58.25
69589;SHT31;56792;50.644;17.984;2024-03-08T12:04:33;8.04;58.06
69589;SHT31;56792;50.644;17.984;2024-03-08T12:07:04;7.99;57.76
69589;SHT31;56792;50.644;17.984;2024-03-08T12:09:40;7.96;57.94
69589;SHT31;56792;50.644;17.984;2024-03-08T12:12:13;7.96;57.83
69589;SHT31;56792;50.644;17.984;2024-03-08T12:14:44;8.02;57.64
69589;SHT31;56792;50.644;17.984;2024-03-08T12:17:15;7.90;57.85
69589;SHT31;56792;50.644;17.984;2024-03-08T12:19:47;7.97;58.53
69589;SHT31;56792;50.644;17.984;2024-03-08T12:22:21;7.99;58.18
69589;SHT31;56792;50.644;17.984;2024-03-08T12:25:04;8.00;58.21
69589;SHT31;56792;50.644;17.984;2024-03-08T12:27:38;8.05;58.61
69589;SHT31;56792;50.644;17.984;2024-03-08T12:30:20;8.09;57.71
69589;SHT31;56792;50.644;17.984;2024-03-08T12:32:54;8.12;58.04
69589;SHT31;56792;50.644;17.984;2024-03-08T12:35:28;8.15;57.84
69589;SHT31;56792;50.644;17.984;2024-03-08T12:38:00;8.13;57.26
69589;SHT31;56792;50.644;17.984;2024-03-08T12:40:32;8.11;57.75
69589;SHT31;56792;50.644;17.984;2024-03-08T12:43:14;8.02;57.63
69589;SHT31;56792;50.644;17.984;2024-03-08T12:45:45;8.07;57.73
69589;SHT31;56792;50.644;17.984;2024-03-08T12:48:16;8.21;57.37
69589;SHT31;56792;50.644;17.984;2024-03-08T12:50:47;8.12;56.59
69589;SHT31;56792;50.644;17.984;2024-03-08T12:53:18;8.05;57.07
69589;SHT31;56792;50.644;17.984;2024-03-08T12:55:52;7.77;56.11
69589;SHT31;56792;50.644;17.984;2024-03-08T12:58:23;7.63;57.72
69589;SHT31;56792;50.644;17.984;2024-03-08T13:00:54;7.85;57.94
69589;SHT31;56792;50.644;17.984;2024-03-08T13:03:25;8.06;57.37
69589;SHT31;56792;50.644;17.984;2024-03-08T13:05:57;8.09;57.63
69589;SHT31;56792;50.644;17.984;2024-03-08T13:08:28;8.20;57.36
69589;SHT31;56792;50.644;17.984;2024-03-08T13:11:02;8.26;57.47
69589;SHT31;56792;50.644;17.984;2024-03-08T13:13:33;8.34;57.31
69589;SHT31;56792;50.644;17.984;2024-03-08T13:16:06;8.37;56.91
69589;SHT31;56792;50.644;17.984;2024-03-08T13:18:41;8.43;57.07
69589;SHT31;56792;50.644;17.984;2024-03-08T13:21:15;8.42;57.05
69589;SHT31;56792;50.644;17.984;2024-03-08T13:23:50;8.44;57.16
69589;SHT31;56792;50.644;17.984;2024-03-08T13:26:21;8.47;57.02
69589;SHT31;56792;50.644;17.984;2024-03-08T13:28:57;8.37;56.51
69589;SHT31;56792;50.644;17.984;2024-03-08T13:31:29;8.34;56.99
69589;SHT31;56792;50.644;17.984;2024-03-08T13:34:02;8.31;56.72
69589;SHT31;56792;50.644;17.984;2024-03-08T13:36:34;8.28;56.62
69589;SHT31;56792;50.644;17.984;2024-03-08T13:39:10;8.28;56.77
69589;SHT31;56792;50.644;17.984;2024-03-08T13:41:42;8.35;57.30
69589;SHT31;56792;50.644;17.984;2024-03-08T13:44:13;8.41;57.11
69589;SHT31;56792;50.644;17.984;2024-03-08T13:46:46;8.40;57.46
69589;SHT31;56792;50.644;17.984;2024-03-08T13:49:17;8.36;57.05
69589;SHT31;56792;50.644;17.984;2024-03-08T13:51:48;8.15;56.38
69589;SHT31;56792;50.644;17.984;2024-03-08T13:54:20;7.99;57.17
69589;SHT31;56792;50.644;17.984;2024-03-08T13:56:53;8.06;57.43
69589;SHT31;56792;50.644;17.984;2024-03-08T13:59:24;8.11;57.42
69589;SHT31;56792;50.644;17.984;2024-03-08T14:01:56;8.15;57.21
69589;SHT31;56792;50.644;17.984;2024-03-08T14:04:28;8.23;57.34
69589;SHT31;56792;50.644;17.984;2024-03-08T14:07:01;8.27;57.57
69589;SHT31;56792;50.644;17.984;2024-03-08T14:09:36;8.21;57.15
69589;SHT31;56792;50.644;17.984;2024-03-08T14:12:09;8.03;57.00
69589;SHT31;56792;50.644;17.984;2024-03-08T14:14:42;8.00;57.62
69589;SHT31;56792;50.644;17.984;2024-03-08T14:17:12;7.93;57.77
69589;SHT31;56792;50.644;17.984;2024-03-08T14:19:44;7.95;57.68
69589;SHT31;56792;50.644;17.984;2024-03-08T14:22:16;8.02;57.69
69589;SHT31;56792;50.644;17.984;2024-03-08T14:24:47;8.06;57.61
69589;SHT31;56792;50.644;17.984;2024-03-08T14:27:18;8.01;57.02
69589;SHT31;56792;50.644;17.984;2024-03-08T14:29:49;8.02;57.72
69589;SHT31;56792;50.644;17.984;2024-03-08T14:32:21;8.08;57.77
69589;SHT31;56792;50.644;17.984;2024-03-08T14:34:52;8.08;57.65
69589;SHT31;56792;50.644;17.984;2024-03-08T14:37:23;8.12;57.79
69589;SHT31;56792;50.644;17.984;2024-03-08T14:39:55;8.14;58.02
69589;SHT31;56792;50.644;17.984;2024-03-08T14:42:26;8.21;58.01
69589;SHT31;56792;50.644;17.984;2024-03-08T14:44:57;8.23;57.89
69589;SHT31;56792;50.644;17.984;2024-03-08T14:47:28;8.16;57.33
69589;SHT31;56792;50.644;17.984;2024-03-08T14:50:00;8.13;57.26
69589;SHT31;56792;50.644;17.984;2024-03-08T14:52:33;8.13;57.20
69589;SHT31;56792;50.644;17.984;2024-03-08T14:55:06;8.08;57.21
69589;SHT31;56792;50.644;17.984;2024-03-08T14:57:40;8.09;57.62
69589;SHT31;56792;50.644;17.984;2024-03-08T15:00:12;8.12;58.08
69589;SHT31;56792;50.644;17.984;2024-03-08T15:02:53;8.09;57.43
69589;SHT31;56792;50.644;17.984;2024-03-08T15:05:24;8.11;57.63
69589;SHT31;56792;50.644;17.984;2024-03-08T15:07:55;8.11;57.68
69589;SHT31;56792;50.644;17.984;2024-03-08T15:10:27;8.13;58.14
69589;SHT31;56792;50.644;17.984;2024-03-08T15:13:00;8.15;57.87
69589;SHT31;56792;50.644;17.984;2024-03-08T15:15:40;8.14;57.77
69589;SHT31;56792;50.644;17.984;2024-03-08T15:18:12;8.14;57.98
69589;SHT31;56792;50.644;17.984;2024-03-08T15:20:42;8.16;57.60
69589;SHT31;56792;50.644;17.984;2024-03-08T15:23:13;8.13;57.67
69589;SHT31;56792;50.644;17.984;2024-03-08T15:25:44;8.12;57.89
69589;SHT31;56792;50.644;17.984;2024-03-08T15:28:16;8.13;57.80
69589;SHT31;56792;50.644;17.984;2024-03-08T15:30:53;8.10;57.78
69589;SHT31;56792;50.644;17.984;2024-03-08T15:33:31;8.07;58.05
69589;SHT31;56792;50.644;17.984;2024-03-08T15:36:08;8.05;57.80
69589;SHT31;56792;50.644;17.984;2024-03-08T15:38:41;8.00;57.63
69589;SHT31;56792;50.644;17.984;2024-03-08T15:41:13;7.97;57.63
69589;SHT31;56792;50.644;17.984;2024-03-08T15:43:44;7.91;57.54
69589;SHT31;56792;50.644;17.984;2024-03-08T15:46:16;7.82;57.80
69589;SHT31;56792;50.644;17.984;2024-03-08T15:48:49;7.81;58.05
69589;SHT31;56792;50.644;17.984;2024-03-08T15:51:19;7.76;57.92
69589;SHT31;56792;50.644;17.984;2024-03-08T15:53:50;7.73;58.34
69589;SHT31;56792;50.644;17.984;2024-03-08T15:56:22;7.70;58.06
69589;SHT31;56792;50.644;17.984;2024-03-08T15:58:54;7.65;58.08